KR-0457 weather

Axel Towers Apartments Heliports
Busan, Busan Gwang'yeogsi, South Korea

Public forecast

Using degrees Celsius for public forecast. Weather courtesy of forecast.io.

Closest aviation weather report (METAR) to Axel Towers Apartments Heliports

Closest report is Gimhae International Airport, 8.6 nm (15.9 km) WNW. Retrieved 2020/07/14 10:00 UTC (16 minutes ago):

RKPK 141000Z 36006KT 8000 -DZ FEW010 BKN015 OVC030 21/18 Q1004

Closest aviation forecast (TAF) to Axel Towers Apartments Heliports

Closest forecast is Gimhae International Airport, 8.6 nm (15.9 km) WNW. Retrieved 2020/07/14 06:00 UTC (4 hours ago):

TAF RKPK 140500Z 1406/1512 03008KT 8000 -DZ SCT015 BKN030 TN21/1421Z TX28/1506Z BECMG 1409/1410 03006KT 4800 -DZ BR BKN015 BKN030